createdAt,value
2023-04-02T00:02:32.238Z,59.11
2023-04-02T00:05:17.094Z,59.46
2023-04-02T00:08:02.099Z,59.16
2023-04-02T00:10:46.963Z,59.29
2023-04-02T00:13:32.159Z,59.12
2023-04-02T00:16:17.021Z,59.01
2023-04-02T00:19:01.921Z,59.51
2023-04-02T00:21:46.664Z,60.36
2023-04-02T00:24:31.530Z,60.36
2023-04-02T00:27:16.437Z,60.79
2023-04-02T00:30:01.417Z,60.56
2023-04-02T00:32:46.537Z,60.05
2023-04-02T00:35:31.330Z,60.56
2023-04-02T00:38:16.297Z,60.74
2023-04-02T00:41:01.180Z,60.80
2023-04-02T00:43:46.069Z,61.21
2023-04-02T00:46:30.922Z,61.33
2023-04-02T00:49:15.706Z,62.12
2023-04-02T00:52:00.644Z,62.47
2023-04-02T00:54:45.664Z,61.76
2023-04-02T00:57:30.712Z,61.59
2023-04-02T01:00:15.771Z,61.07
2023-04-02T01:03:00.810Z,61.66
2023-04-02T01:05:45.571Z,61.69
2023-04-02T01:08:30.545Z,61.36
2023-04-02T01:11:15.368Z,60.99
2023-04-02T01:14:00.348Z,60.42
2023-04-02T01:16:45.294Z,60.54
2023-04-02T01:19:30.167Z,60.96
2023-04-02T01:22:15.355Z,60.66
2023-04-02T01:25:00.215Z,60.69
2023-04-02T01:27:45.273Z,60.87
2023-04-02T01:30:30.140Z,60.92
2023-04-02T01:33:15.291Z,61.00
2023-04-02T01:36:00.242Z,60.72
2023-04-02T01:41:33.395Z,60.22
2023-04-02T01:44:18.158Z,60.19
2023-04-02T01:47:03.118Z,60.53
2023-04-02T01:49:48.102Z,60.42
2023-04-02T01:52:32.927Z,59.94
2023-04-02T01:55:17.981Z,60.05
2023-04-02T01:58:02.821Z,59.85
2023-04-02T02:00:47.913Z,59.53
2023-04-02T02:03:32.955Z,60.08
2023-04-02T02:06:17.875Z,59.19
2023-04-02T02:09:02.755Z,58.53
2023-04-02T02:11:47.587Z,59.08
2023-04-02T02:14:32.591Z,59.29
2023-04-02T02:17:17.485Z,60.27
2023-04-02T02:20:02.518Z,59.58
2023-04-02T02:22:47.277Z,59.86
2023-04-02T02:25:32.532Z,59.63
2023-04-02T02:28:17.372Z,59.32
2023-04-02T02:31:02.186Z,59.15
2023-04-02T02:33:47.284Z,58.88
2023-04-02T02:36:32.214Z,59.04
2023-04-02T02:39:16.952Z,58.71
2023-04-02T02:42:01.924Z,59.19
2023-04-02T02:44:46.877Z,59.65
2023-04-02T02:47:31.879Z,60.20
2023-04-02T02:50:16.581Z,60.80
2023-04-02T02:53:01.581Z,60.10
2023-04-02T02:55:46.499Z,60.40
2023-04-02T02:58:31.521Z,60.94
2023-04-02T03:01:16.107Z,60.35
2023-04-02T03:04:01.154Z,60.22
2023-04-02T03:06:46.090Z,60.29
2023-04-02T03:09:31.076Z,60.53
2023-04-02T03:12:15.838Z,60.86
2023-04-02T03:15:00.840Z,61.36
2023-04-02T03:17:45.831Z,62.69
2023-04-02T03:20:30.770Z,62.48
2023-04-02T03:23:15.436Z,62.97
2023-04-02T03:26:00.411Z,62.23
2023-04-02T03:28:45.720Z,62.36
2023-04-02T03:31:30.651Z,61.78
2023-04-02T03:34:15.587Z,62.08
2023-04-02T03:37:00.667Z,62.33
2023-04-02T03:39:45.706Z,62.16
2023-04-02T03:42:30.617Z,61.79
2023-04-02T03:45:15.456Z,61.74
2023-04-02T03:48:00.334Z,61.93
2023-04-02T03:50:45.397Z,62.13
2023-04-02T03:53:30.477Z,61.53
2023-04-02T03:56:15.131Z,61.07
2023-04-02T03:58:59.976Z,61.02
2023-04-02T04:01:44.980Z,60.71
2023-04-02T04:04:29.874Z,60.95
2023-04-02T04:07:14.709Z,61.42
2023-04-02T04:09:59.831Z,60.86
2023-04-02T04:12:44.648Z,61.12
2023-04-02T04:15:29.628Z,61.02
2023-04-02T04:18:14.611Z,60.82
2023-04-02T04:20:59.358Z,60.60
2023-04-02T04:23:44.436Z,60.36
2023-04-02T04:26:29.085Z,59.83
2023-04-02T04:29:13.864Z,60.05
2023-04-02T04:31:58.883Z,59.54
2023-04-02T04:34:44.010Z,59.45
2023-04-02T04:37:28.831Z,59.92
2023-04-02T04:40:13.876Z,59.16
2023-04-02T04:42:58.546Z,59.13
2023-04-02T04:45:43.662Z,59.50
2023-04-02T04:48:28.836Z,59.54
2023-04-02T04:51:13.666Z,58.74
2023-04-02T04:53:58.349Z,58.41
2023-04-02T04:56:43.147Z,58.71
2023-04-02T04:59:27.776Z,59.49
2023-04-02T05:02:12.635Z,59.51
2023-04-02T05:04:57.760Z,59.51
2023-04-02T05:07:42.485Z,59.35
2023-04-02T05:10:27.527Z,59.36
2023-04-02T05:13:12.366Z,59.66
2023-04-02T05:15:58.862Z,59.95
2023-04-02T05:18:44.851Z,60.78
2023-04-02T05:21:29.735Z,59.83
2023-04-02T05:24:14.643Z,59.80
2023-04-02T05:26:59.583Z,60.11
2023-04-02T05:29:44.466Z,59.10
2023-04-02T05:32:29.608Z,59.02
2023-04-02T05:35:14.524Z,59.32
2023-04-02T05:37:59.471Z,59.16
2023-04-02T05:40:44.254Z,59.29
2023-04-02T05:43:29.351Z,60.02
2023-04-02T05:46:14.385Z,60.23
2023-04-02T05:48:59.327Z,60.18
2023-04-02T05:51:44.354Z,60.06
2023-04-02T05:54:29.291Z,60.20
2023-04-02T05:57:14.295Z,60.60
2023-04-02T05:59:59.070Z,60.76
2023-04-02T06:02:44.201Z,61.40
2023-04-02T06:05:28.991Z,61.22
2023-04-02T06:08:14.019Z,61.27
2023-04-02T06:10:59.068Z,61.68
2023-04-02T06:13:44.167Z,62.14
2023-04-02T06:16:29.222Z,61.38
2023-04-02T06:19:14.207Z,61.20
2023-04-02T06:21:59.120Z,61.45
2023-04-02T06:24:44.007Z,61.96
2023-04-02T06:27:28.963Z,61.43
2023-04-02T06:30:13.647Z,61.88
2023-04-02T06:32:58.367Z,63.78
2023-04-02T06:35:43.643Z,64.32
2023-04-02T06:38:28.344Z,65.78
2023-04-02T06:41:13.356Z,66.41
2023-04-02T06:43:58.091Z,67.21
2023-04-02T06:46:43.111Z,66.37
2023-04-02T06:49:27.789Z,66.94
2023-04-02T06:52:12.644Z,66.42
2023-04-02T06:54:57.552Z,65.25
2023-04-02T06:57:43.068Z,64.71
2023-04-02T07:00:27.804Z,66.38
2023-04-02T07:03:12.755Z,66.00
2023-04-02T07:05:57.775Z,65.32
2023-04-02T07:08:42.613Z,64.11
2023-04-02T07:11:27.335Z,64.18
2023-04-02T07:14:12.270Z,62.33
2023-04-02T07:16:56.976Z,62.85
2023-04-02T07:19:41.932Z,62.30
2023-04-02T07:22:26.671Z,62.05
2023-04-02T07:25:11.870Z,64.39
2023-04-02T07:27:56.808Z,61.29
2023-04-02T07:30:41.472Z,61.89
2023-04-02T07:33:26.156Z,62.83
2023-04-02T07:36:11.254Z,62.24
2023-04-02T07:38:55.880Z,64.40
2023-04-02T07:41:40.648Z,63.68
2023-04-02T07:44:25.507Z,63.11
2023-04-02T07:47:10.597Z,62.63
2023-04-02T07:49:55.407Z,63.56
2023-04-02T07:52:40.642Z,62.36
2023-04-02T07:55:25.588Z,61.29
2023-04-02T07:58:10.524Z,61.55
2023-04-02T08:00:55.344Z,61.66
2023-04-02T08:03:40.269Z,59.83
2023-04-02T08:06:25.306Z,60.16
2023-04-02T08:09:10.171Z,60.56
2023-04-02T08:11:55.202Z,61.10
2023-04-02T08:14:40.215Z,59.59
2023-04-02T08:17:25.058Z,59.14
2023-04-02T08:20:10.085Z,58.90
2023-04-02T08:22:54.966Z,59.54
2023-04-02T08:25:39.642Z,57.10
2023-04-02T08:28:24.593Z,56.32
2023-04-02T08:31:09.560Z,56.07
2023-04-02T08:33:54.477Z,54.72
2023-04-02T08:36:39.127Z,55.52
2023-04-02T08:39:23.991Z,54.77
2023-04-02T08:42:08.920Z,54.84
2023-04-02T08:44:53.878Z,54.79
2023-04-02T08:47:38.638Z,55.09
2023-04-02T08:50:23.775Z,55.95
2023-04-02T08:53:08.572Z,57.00
2023-04-02T08:55:53.162Z,55.58
2023-04-02T08:58:37.938Z,57.25
2023-04-02T09:01:23.015Z,56.21
2023-04-02T09:04:07.985Z,53.88
2023-04-02T09:06:52.735Z,53.75
2023-04-02T09:09:37.688Z,53.49
2023-04-02T09:12:22.629Z,52.04
2023-04-02T09:15:07.566Z,51.76
2023-04-02T09:17:54.438Z,49.61
2023-04-02T09:20:39.800Z,49.70
2023-04-02T09:23:24.855Z,50.12
2023-04-02T09:26:09.815Z,51.19
2023-04-02T09:28:54.922Z,51.20
2023-04-02T09:31:39.866Z,51.44
2023-04-02T09:34:24.875Z,51.69
2023-04-02T09:37:09.829Z,52.46
2023-04-02T09:39:54.658Z,54.07
2023-04-02T09:42:39.741Z,55.10
2023-04-02T09:45:24.585Z,54.13
2023-04-02T09:48:09.550Z,53.62
2023-04-02T09:50:54.342Z,52.38
2023-04-02T09:53:41.819Z,51.61
2023-04-02T09:56:27.058Z,50.88
2023-04-02T09:59:12.215Z,50.33
2023-04-02T10:01:57.109Z,50.96
2023-04-02T10:04:41.774Z,49.46
2023-04-02T10:07:26.656Z,50.62
2023-04-02T10:10:11.508Z,49.26
2023-04-02T10:12:56.508Z,49.25
2023-04-02T10:15:41.372Z,48.73
2023-04-02T10:18:26.531Z,47.73
2023-04-02T10:21:11.436Z,48.80
2023-04-02T10:23:56.024Z,46.69
2023-04-02T10:26:40.969Z,48.33
2023-04-02T10:29:25.980Z,48.18
2023-04-02T10:32:11.006Z,48.27
2023-04-02T10:34:55.868Z,48.36
2023-04-02T10:37:40.900Z,45.09
2023-04-02T10:40:25.737Z,44.95
2023-04-02T10:43:10.914Z,44.46
2023-04-02T10:45:55.825Z,46.44
2023-04-02T10:48:40.969Z,46.41
2023-04-02T10:51:25.793Z,45.00
2023-04-02T10:54:10.989Z,44.67
2023-04-02T10:56:55.930Z,45.72
2023-04-02T10:59:40.674Z,46.21
2023-04-02T11:02:25.840Z,46.23
2023-04-02T11:05:10.862Z,47.50
2023-04-02T11:07:55.839Z,47.22
2023-04-02T11:10:40.689Z,43.97
2023-04-02T11:13:25.794Z,48.27
2023-04-02T11:16:10.760Z,46.82
2023-04-02T11:18:55.695Z,45.11
2023-04-02T11:21:55.019Z,45.26
2023-04-02T11:24:43.093Z,47.53
2023-04-02T11:27:27.813Z,45.43
2023-04-02T11:30:12.547Z,44.84
2023-04-02T11:32:57.433Z,43.79
2023-04-02T11:35:42.413Z,44.75
2023-04-02T11:38:27.224Z,45.70
2023-04-02T11:41:12.193Z,43.88
2023-04-02T11:43:57.190Z,44.07
2023-04-02T11:46:42.199Z,43.81
2023-04-02T11:49:27.080Z,44.24
2023-04-02T11:52:12.833Z,44.93
2023-04-02T11:54:57.605Z,45.23
2023-04-02T11:57:42.571Z,44.98
2023-04-02T12:00:27.558Z,45.57
2023-04-02T12:03:12.564Z,45.36
2023-04-02T12:05:57.631Z,46.89
2023-04-02T12:08:56.742Z,47.41
2023-04-02T12:11:42.489Z,47.14
2023-04-02T12:14:27.551Z,47.08
2023-04-02T12:17:12.842Z,46.68
2023-04-02T12:19:57.752Z,44.84
2023-04-02T12:22:42.621Z,45.46
2023-04-02T12:25:27.576Z,46.64
2023-04-02T12:28:12.344Z,45.32
2023-04-02T12:30:57.068Z,46.57
2023-04-02T12:33:41.989Z,45.60
2023-04-02T12:36:26.855Z,45.34
2023-04-02T12:39:11.712Z,45.31
2023-04-02T12:41:56.594Z,46.38
2023-04-02T12:44:41.526Z,45.04
2023-04-02T12:47:26.647Z,43.94
2023-04-02T12:50:11.873Z,45.33
2023-04-02T12:52:56.799Z,45.35
2023-04-02T12:55:41.947Z,42.75
2023-04-02T12:58:26.983Z,43.46
2023-04-02T13:01:11.984Z,42.51
2023-04-02T13:03:56.987Z,42.86
2023-04-02T13:06:42.184Z,41.33
2023-04-02T13:09:28.561Z,42.90
2023-04-02T13:12:13.421Z,43.90
2023-04-02T13:14:58.503Z,44.03
2023-04-02T13:17:43.301Z,43.61
2023-04-02T13:20:28.072Z,44.11
2023-04-02T13:23:13.039Z,44.15
2023-04-02T13:25:57.887Z,43.60
2023-04-02T13:28:42.871Z,44.28
2023-04-02T13:31:28.113Z,45.90
2023-04-02T13:34:13.248Z,46.91
2023-04-02T13:36:57.899Z,46.89
2023-04-02T13:39:42.961Z,47.35
2023-04-02T13:42:27.854Z,47.10
2023-04-02T13:45:12.846Z,46.81
2023-04-02T13:47:57.820Z,46.78
2023-04-02T13:50:42.667Z,48.15
2023-04-02T13:53:27.550Z,46.72
2023-04-02T13:56:12.388Z,46.66
2023-04-02T13:58:57.517Z,45.21
2023-04-02T14:01:42.228Z,45.52
2023-04-02T14:04:27.202Z,43.64
2023-04-02T14:07:11.883Z,45.07
2023-04-02T14:09:57.104Z,42.37
2023-04-02T14:12:41.881Z,45.43
2023-04-02T14:15:26.886Z,44.44
2023-04-02T14:18:11.576Z,45.17
2023-04-02T14:20:56.229Z,41.82
2023-04-02T14:23:41.444Z,44.08
2023-04-02T14:26:26.156Z,47.21
2023-04-02T14:29:10.954Z,47.77
2023-04-02T14:31:55.910Z,48.25
2023-04-02T14:34:40.875Z,48.81
2023-04-02T14:37:25.825Z,49.55
2023-04-02T14:40:10.632Z,49.69
2023-04-02T14:42:55.471Z,49.79
2023-04-02T14:45:40.568Z,49.94
2023-04-02T14:48:25.839Z,49.42
2023-04-02T14:51:10.553Z,48.54
2023-04-02T14:53:55.528Z,45.61
2023-04-02T14:56:40.434Z,47.20
2023-04-02T14:59:25.387Z,47.83
2023-04-02T15:02:09.866Z,48.17
2023-04-02T15:04:55.014Z,47.56
2023-04-02T15:07:39.955Z,45.09
2023-04-02T15:10:24.951Z,44.52
2023-04-02T15:13:09.907Z,43.86
2023-04-02T15:15:54.497Z,43.24
2023-04-02T15:18:39.786Z,42.96
2023-04-02T15:21:24.388Z,43.15
2023-04-02T15:24:09.471Z,43.09
2023-04-02T15:26:54.309Z,43.14
2023-04-02T15:29:39.047Z,43.38
2023-04-02T15:32:24.106Z,43.55
2023-04-02T15:35:08.776Z,43.65
2023-04-02T15:37:53.786Z,43.77
2023-04-02T15:40:38.752Z,43.77
2023-04-02T15:43:23.732Z,44.03
2023-04-02T15:46:08.607Z,44.66
2023-04-02T15:48:53.220Z,43.80
2023-04-02T15:51:38.136Z,44.95
2023-04-02T15:54:22.904Z,43.20
2023-04-02T15:57:07.811Z,42.99
2023-04-02T15:59:52.862Z,44.71
2023-04-02T16:02:37.629Z,43.44
2023-04-02T16:05:26.408Z,42.93
2023-04-02T16:08:11.523Z,43.73
2023-04-02T16:10:56.700Z,43.30
2023-04-02T16:13:41.579Z,43.34
2023-04-02T16:16:26.832Z,43.40
2023-04-02T16:19:16.834Z,46.60
2023-04-02T16:22:01.921Z,47.80
2023-04-02T16:24:46.952Z,48.27
2023-04-02T16:27:31.735Z,50.10
2023-04-02T16:30:16.961Z,49.74
2023-04-02T16:33:03.192Z,51.00
2023-04-02T16:35:48.142Z,51.06
2023-04-02T16:38:33.082Z,51.06
2023-04-02T16:41:18.064Z,51.75
2023-04-02T16:44:04.291Z,51.33
2023-04-02T16:46:49.256Z,51.29
2023-04-02T16:49:34.292Z,51.35
2023-04-02T16:52:19.179Z,51.45
2023-04-02T16:55:04.211Z,51.34
2023-04-02T16:57:49.209Z,51.17
2023-04-02T17:00:34.099Z,51.36
2023-04-02T17:03:19.661Z,52.61
2023-04-02T17:06:05.068Z,52.72
2023-04-02T17:08:49.845Z,53.72
2023-04-02T17:11:34.852Z,53.16
2023-04-02T17:14:19.923Z,53.42
2023-04-02T17:17:04.827Z,53.22
2023-04-02T17:19:49.896Z,53.43
2023-04-02T17:22:34.847Z,53.99
2023-04-02T17:25:19.801Z,53.32
2023-04-02T17:28:04.844Z,53.48
2023-04-02T17:30:49.844Z,53.74
2023-04-02T17:33:34.805Z,52.94
2023-04-02T17:36:19.685Z,53.29
2023-04-02T17:39:04.632Z,54.05
2023-04-02T17:41:49.462Z,53.29
2023-04-02T17:44:34.130Z,53.36
2023-04-02T17:47:19.178Z,54.00
2023-04-02T17:50:04.175Z,54.00
2023-04-02T17:52:49.182Z,54.26
2023-04-02T17:55:34.132Z,55.15
2023-04-02T17:58:19.196Z,54.90
2023-04-02T18:01:04.220Z,54.94
2023-04-02T18:03:49.069Z,54.93
2023-04-02T18:06:33.829Z,54.20
2023-04-02T18:09:18.665Z,54.58
2023-04-02T18:12:03.802Z,53.42
2023-04-02T18:14:48.606Z,53.85
2023-04-02T18:17:33.529Z,53.84
2023-04-02T18:20:18.319Z,53.92
2023-04-02T18:23:03.300Z,54.20
2023-04-02T18:25:47.961Z,54.57
2023-04-02T18:28:32.968Z,53.63
2023-04-02T18:31:17.985Z,53.39
2023-04-02T18:34:02.839Z,53.57
2023-04-02T18:36:47.622Z,53.74
2023-04-02T18:39:32.405Z,53.83
2023-04-02T18:42:17.007Z,53.86
2023-04-02T18:45:01.920Z,54.09
2023-04-02T18:47:46.636Z,53.97
2023-04-02T18:50:31.802Z,53.79
2023-04-02T18:53:16.541Z,53.90
2023-04-02T18:56:01.398Z,54.00
2023-04-02T18:58:46.191Z,53.98
2023-04-02T19:01:31.267Z,53.94
2023-04-02T19:04:15.961Z,53.71
2023-04-02T19:07:01.021Z,54.02
2023-04-02T19:09:45.971Z,53.79
2023-04-02T19:12:31.095Z,53.71
2023-04-02T19:15:16.061Z,53.68
2023-04-02T19:18:01.055Z,53.54
2023-04-02T19:20:45.622Z,53.81
2023-04-02T19:23:30.394Z,54.17
2023-04-02T19:26:15.340Z,54.03
2023-04-02T19:29:00.145Z,54.67
2023-04-02T19:31:44.919Z,54.42
2023-04-02T19:34:29.786Z,54.38
2023-04-02T19:37:14.449Z,54.30
2023-04-02T19:39:59.306Z,54.47
2023-04-02T19:42:44.375Z,54.05
2023-04-02T19:45:28.938Z,54.03
2023-04-02T19:48:13.794Z,53.88
2023-04-02T19:50:58.806Z,54.06
2023-04-02T19:53:43.549Z,54.30
2023-04-02T19:56:28.335Z,54.52
2023-04-02T20:02:00.942Z,54.51
2023-04-02T20:04:45.872Z,54.88
2023-04-02T20:07:30.943Z,54.72
2023-04-02T20:10:15.734Z,54.70
2023-04-02T20:13:00.749Z,54.49
2023-04-02T20:15:45.806Z,54.76
2023-04-02T20:18:30.717Z,54.60
2023-04-02T20:21:15.644Z,54.79
2023-04-02T20:24:00.640Z,54.83
2023-04-02T20:26:45.299Z,55.02
2023-04-02T20:29:30.479Z,54.97
2023-04-02T20:32:15.218Z,55.11
2023-04-02T20:35:00.007Z,55.04
2023-04-02T20:37:44.894Z,54.94
2023-04-02T20:40:29.953Z,55.06
2023-04-02T20:43:14.831Z,55.40
2023-04-02T20:46:00.024Z,55.32
2023-04-02T20:48:44.567Z,55.21
2023-04-02T20:51:29.502Z,55.49
2023-04-02T20:54:14.480Z,55.47
2023-04-02T20:56:59.433Z,55.52
2023-04-02T20:59:44.422Z,55.54
2023-04-02T21:02:29.500Z,55.57
2023-04-02T21:05:14.599Z,56.29
2023-04-02T21:07:59.659Z,56.90
2023-04-02T21:10:44.528Z,56.79
2023-04-02T21:13:29.198Z,56.35
2023-04-02T21:16:14.021Z,57.04
2023-04-02T21:18:58.910Z,56.83
2023-04-02T21:21:43.756Z,56.57
2023-04-02T21:24:28.609Z,56.58
2023-04-02T21:27:13.185Z,56.78
2023-04-02T21:29:57.936Z,56.92
2023-04-02T21:32:42.826Z,56.84
2023-04-02T21:35:27.929Z,56.39
2023-04-02T21:38:12.948Z,56.03
2023-04-02T21:40:57.696Z,56.28
2023-04-02T21:43:42.645Z,56.38
2023-04-02T21:46:27.404Z,57.02
2023-04-02T21:49:12.313Z,56.67
2023-04-02T21:51:57.128Z,56.49
2023-04-02T21:54:41.874Z,56.38
2023-04-02T21:57:26.808Z,56.16
2023-04-02T22:00:11.740Z,56.60
2023-04-02T22:02:56.800Z,56.54
2023-04-02T22:05:42.093Z,57.13
2023-04-02T22:08:26.991Z,57.33
2023-04-02T22:11:13.070Z,57.33
2023-04-02T22:13:58.151Z,57.02
2023-04-02T22:16:43.013Z,56.83
2023-04-02T22:19:28.020Z,57.55
2023-04-02T22:22:12.688Z,56.96
2023-04-02T22:24:57.753Z,56.82
2023-04-02T22:27:42.525Z,56.70
2023-04-02T22:30:27.432Z,56.83
2023-04-02T22:33:12.387Z,56.74
2023-04-02T22:35:57.421Z,56.67
2023-04-02T22:38:42.124Z,56.86
2023-04-02T22:41:26.787Z,57.68
2023-04-02T22:44:11.883Z,58.34
2023-04-02T22:46:56.816Z,58.69
2023-04-02T22:49:41.763Z,58.77
2023-04-02T22:52:26.573Z,58.74
2023-04-02T22:55:11.605Z,58.97
2023-04-02T22:57:56.348Z,58.67
2023-04-02T23:00:41.282Z,58.84
2023-04-02T23:03:26.182Z,58.94
2023-04-02T23:06:11.049Z,58.61
2023-04-02T23:08:55.973Z,58.66
2023-04-02T23:11:40.725Z,58.88
2023-04-02T23:14:25.738Z,58.91
2023-04-02T23:17:10.640Z,59.02
2023-04-02T23:19:55.741Z,59.17
2023-04-02T23:22:40.601Z,59.40
2023-04-02T23:25:25.827Z,59.18
2023-04-02T23:28:10.873Z,58.75
2023-04-02T23:30:55.457Z,58.36
2023-04-02T23:33:40.470Z,58.33
2023-04-02T23:36:25.167Z,58.28
2023-04-02T23:39:10.022Z,58.54
2023-04-02T23:41:54.981Z,58.69
2023-04-02T23:44:39.814Z,59.11
2023-04-02T23:47:24.827Z,59.28
2023-04-02T23:50:09.668Z,59.43
2023-04-02T23:52:54.769Z,59.30
2023-04-02T23:55:39.686Z,58.84
2023-04-02T23:58:24.784Z,59.71
